Time;durP1;ratioP1;P1;durP2;ratioP2;P2;SDS_P1;SDS_P2;PMS_P1;PMS_P2;Temp;Humidity;BMP_temperature;BMP_pressure;BME280_temperature;BME280_humidity;BME280_pressure;Samples;Min_cycle;Max_cycle;Signal;HPM_P1;HPM_P2
2023/12/21 00:01:58;;;;;;;16.37;4.87;;;9.10;99.90;;;;;;5030518;28;20045;-64
2023/12/21 00:04:25;;;;;;;14.10;3.37;;;9.10;99.90;;;;;;5030600;28;20424;-65
2023/12/21 00:06:51;;;;;;;13.02;4.03;;;9.10;99.90;;;;;;5030497;28;20450;-65
2023/12/21 00:09:16;;;;;;;22.55;4.32;;;9.10;99.90;;;;;;5030726;28;20103;-66
2023/12/21 00:11:42;;;;;;;14.07;4.80;;;9.10;99.90;;;;;;5030530;28;20063;-65
2023/12/21 00:14:08;;;;;;;17.80;3.30;;;9.10;99.90;;;;;;5030252;28;20272;-65
2023/12/21 00:16:33;;;;;;;11.17;3.37;;;9.20;99.90;;;;;;5028931;28;20052;-66
2023/12/21 00:18:59;;;;;;;14.00;4.53;;;9.20;99.90;;;;;;5030810;28;20315;-65
2023/12/21 00:21:24;;;;;;;13.37;4.00;;;9.20;99.90;;;;;;5030466;28;20041;-65
2023/12/21 00:23:50;;;;;;;15.53;4.20;;;9.20;99.90;;;;;;5025260;28;20046;-65
2023/12/21 00:26:15;;;;;;;20.27;4.37;;;9.20;99.90;;;;;;5030326;28;20435;-65
2023/12/21 00:28:41;;;;;;;16.07;4.57;;;9.20;99.90;;;;;;5030346;28;20045;-65
2023/12/21 00:31:06;;;;;;;16.37;4.63;;;9.20;99.90;;;;;;5030073;28;20040;-66
2023/12/21 00:33:32;;;;;;;17.53;4.43;;;9.20;99.90;;;;;;5027091;28;20069;-65
2023/12/21 00:35:58;;;;;;;13.03;4.23;;;9.20;99.90;;;;;;5029421;28;20041;-64
2023/12/21 00:38:23;;;;;;;13.90;4.77;;;9.20;99.90;;;;;;5030420;28;20048;-64
2023/12/21 00:40:49;;;;;;;17.10;4.30;;;9.20;99.90;;;;;;5030312;28;20041;-65
2023/12/21 00:43:15;;;;;;;23.40;5.60;;;9.20;99.90;;;;;;5028407;28;20587;-64
2023/12/21 00:45:40;;;;;;;18.83;4.83;;;9.20;99.90;;;;;;5030114;28;20328;-65
2023/12/21 00:48:06;;;;;;;20.10;4.80;;;9.20;99.90;;;;;;5010623;28;20531;-65
2023/12/21 00:50:32;;;;;;;20.00;4.95;;;9.20;99.90;;;;;;5030065;28;20109;-65
2023/12/21 00:52:57;;;;;;;13.00;4.67;;;9.20;99.90;;;;;;5028171;28;20496;-64
2023/12/21 00:55:23;;;;;;;17.47;5.70;;;9.20;99.90;;;;;;5037452;28;20275;-65
2023/12/21 00:57:49;;;;;;;15.77;5.17;;;9.20;99.90;;;;;;5034027;28;20351;-65
2023/12/21 01:00:15;;;;;;;16.03;4.50;;;9.30;99.90;;;;;;5030019;28;20049;-65
2023/12/21 01:02:40;;;;;;;11.80;3.60;;;9.20;99.90;;;;;;5026980;28;20041;-65
2023/12/21 01:05:06;;;;;;;19.47;4.57;;;9.20;99.90;;;;;;5028342;28;20053;-64
2023/12/21 01:07:32;;;;;;;17.23;4.50;;;9.30;99.90;;;;;;5029379;28;20499;-66
2023/12/21 01:09:57;;;;;;;17.70;5.40;;;9.30;99.90;;;;;;5027722;28;20041;-67
2023/12/21 01:12:24;;;;;;;32.70;6.73;;;9.30;99.90;;;;;;5027304;28;20412;-67
2023/12/21 01:14:50;;;;;;;15.85;4.57;;;9.20;99.90;;;;;;5025768;28;20049;-64
2023/12/21 01:17:16;;;;;;;23.58;6.00;;;9.20;99.90;;;;;;5024332;28;20045;-65
2023/12/21 01:19:41;;;;;;;18.75;5.93;;;9.30;99.90;;;;;;5025606;28;20132;-65
2023/12/21 01:22:07;;;;;;;19.27;4.50;;;9.30;99.90;;;;;;5023544;28;20069;-65
2023/12/21 01:24:32;;;;;;;20.37;5.67;;;9.20;99.90;;;;;;5025340;28;20045;-64
2023/12/21 01:26:58;;;;;;;17.73;5.70;;;9.20;99.90;;;;;;5022296;28;20045;-65
2023/12/21 01:29:24;;;;;;;19.63;5.63;;;9.20;99.90;;;;;;5023438;28;20284;-64
2023/12/21 01:31:50;;;;;;;17.35;5.70;;;9.20;99.90;;;;;;5017947;28;20045;-65
2023/12/21 01:34:16;;;;;;;15.57;5.65;;;9.20;99.90;;;;;;5025571;28;20052;-64
2023/12/21 01:36:42;;;;;;;23.67;6.30;;;9.20;99.90;;;;;;5023153;28;20038;-64
2023/12/21 01:39:08;;;;;;;21.80;6.20;;;9.20;99.90;;;;;;5023438;28;20344;-65
2023/12/21 01:41:34;;;;;;;14.77;4.50;;;9.20;99.90;;;;;;5023994;28;20045;-65
2023/12/21 01:44:00;;;;;;;22.38;5.65;;;9.20;99.90;;;;;;5021429;28;20037;-65
2023/12/21 01:46:25;;;;;;;24.92;5.70;;;9.20;99.90;;;;;;5023964;28;20052;-65
2023/12/21 01:48:51;;;;;;;16.90;4.68;;;9.20;99.90;;;;;;5020809;28;20037;-63
2023/12/21 01:51:19;;;;;;;19.48;4.85;;;9.20;99.90;;;;;;5024533;28;20068;-64
2023/12/21 01:53:45;;;;;;;18.52;5.30;;;9.20;99.90;;;;;;5022530;28;20111;-63
2023/12/21 01:56:10;;;;;;;16.85;4.53;;;9.20;99.90;;;;;;5027696;28;20045;-65
2023/12/21 01:58:37;;;;;;;17.52;3.70;;;9.20;99.90;;;;;;5023375;28;20160;-64
2023/12/21 02:01:05;;;;;;;20.25;4.80;;;9.20;99.90;;;;;;5023918;28;20065;-65
2023/12/21 02:03:31;;;;;;;16.23;4.85;;;9.20;99.90;;;;;;5023337;28;20318;-65
2023/12/21 02:05:56;;;;;;;17.80;4.78;;;9.20;99.90;;;;;;5024146;28;20120;-64
2023/12/21 02:08:22;;;;;;;18.00;4.30;;;9.20;99.90;;;;;;5027024;28;20424;-64
2023/12/21 02:10:48;;;;;;;21.00;3.90;;;9.20;99.90;;;;;;5023499;28;20740;-65
2023/12/21 02:13:15;;;;;;;15.35;4.47;;;9.20;99.90;;;;;;5022096;28;20037;-64
2023/12/21 02:15:40;;;;;;;20.95;5.10;;;9.20;99.90;;;;;;5022836;28;20072;-65
2023/12/21 02:18:07;;;;;;;16.70;4.53;;;9.20;99.90;;;;;;5023389;28;20500;-64
2023/12/21 02:20:33;;;;;;;19.40;4.38;;;9.20;99.90;;;;;;5024544;28;20045;-64
2023/12/21 02:23:01;;;;;;;18.73;3.95;;;9.30;99.90;;;;;;5021628;28;20526;-65
2023/12/21 02:25:27;;;;;;;16.27;4.22;;;9.30;99.90;;;;;;5023828;28;20225;-64
2023/12/21 02:27:53;;;;;;;15.50;4.15;;;9.20;99.90;;;;;;5020713;28;20069;-65
2023/12/21 02:30:18;;;;;;;20.63;4.03;;;9.30;99.90;;;;;;5022983;28;20041;-65
2023/12/21 02:32:44;;;;;;;15.23;4.80;;;9.20;99.90;;;;;;5022610;28;20283;-64
2023/12/21 02:35:10;;;;;;;17.80;4.05;;;9.30;99.90;;;;;;5022902;28;20143;-64
2023/12/21 02:37:35;;;;;;;11.17;3.40;;;9.30;99.90;;;;;;5020802;28;20459;-64
2023/12/21 02:40:01;;;;;;;11.00;3.03;;;9.30;99.90;;;;;;5021784;28;20044;-65
2023/12/21 02:42:27;;;;;;;19.23;3.78;;;9.20;99.90;;;;;;5025585;28;20049;-65
2023/12/21 02:44:52;;;;;;;22.05;3.97;;;9.30;99.90;;;;;;5019620;28;20045;-65
2023/12/21 02:47:18;;;;;;;16.23;3.73;;;9.30;99.90;;;;;;5023256;28;20042;-65
2023/12/21 02:49:43;;;;;;;20.13;4.37;;;9.20;99.90;;;;;;5022619;28;20285;-64
2023/12/21 02:52:09;;;;;;;15.97;4.70;;;9.30;99.90;;;;;;5023141;28;20057;-64
2023/12/21 02:54:35;;;;;;;16.53;4.03;;;9.30;99.90;;;;;;5021915;28;20041;-64
2023/12/21 02:57:00;;;;;;;24.20;4.27;;;9.30;99.90;;;;;;5021117;28;20384;-65
2023/12/21 02:59:26;;;;;;;18.80;4.07;;;9.30;99.90;;;;;;5025151;28;20076;-65
2023/12/21 03:01:52;;;;;;;17.33;5.78;;;9.30;99.90;;;;;;5026067;28;20798;-64
2023/12/21 03:04:17;;;;;;;13.35;5.30;;;9.30;99.90;;;;;;5027542;28;20408;-64
2023/12/21 03:06:43;;;;;;;17.90;4.57;;;9.20;99.90;;;;;;5027718;28;20042;-65
2023/12/21 03:09:09;;;;;;;24.58;5.90;;;9.30;99.90;;;;;;5027474;28;20045;-64
2023/12/21 03:11:35;;;;;;;15.13;4.53;;;9.30;99.90;;;;;;5025296;28;20033;-65
2023/12/21 03:14:01;;;;;;;16.85;6.47;;;9.30;99.90;;;;;;5026842;28;20033;-65
2023/12/21 03:16:26;;;;;;;17.37;6.33;;;9.30;99.90;;;;;;5027529;28;20080;-65
2023/12/21 03:18:52;;;;;;;23.00;6.70;;;9.20;99.90;;;;;;5026015;28;20273;-64
2023/12/21 03:21:17;;;;;;;16.23;6.83;;;9.20;99.90;;;;;;5026666;28;20314;-64
2023/12/21 03:23:43;;;;;;;18.83;6.30;;;9.20;99.90;;;;;;5027323;28;20037;-64
2023/12/21 03:26:09;;;;;;;15.83;6.57;;;9.20;99.90;;;;;;5024873;28;20778;-64
2023/12/21 03:28:35;;;;;;;19.10;8.60;;;9.20;99.90;;;;;;5025785;28;20460;-64
2023/12/21 03:31:01;;;;;;;11.23;6.72;;;9.20;99.90;;;;;;5024502;28;20042;-65
2023/12/21 03:33:27;;;;;;;;;;;9.20;99.90;;;;;;5027064;28;20115;-64
2023/12/21 03:35:52;;;;;;;14.48;6.78;;;9.30;99.90;;;;;;5022942;28;19964;-64
2023/12/21 03:38:18;;;;;;;12.48;6.55;;;9.20;99.90;;;;;;5030724;28;20082;-65
2023/12/21 03:40:44;;;;;;;14.43;7.00;;;9.20;99.90;;;;;;5032084;28;20523;-65
2023/12/21 03:43:09;;;;;;;22.10;7.93;;;9.20;99.90;;;;;;5030555;28;20276;-65
2023/12/21 03:45:39;;;;;;;18.27;8.05;;;9.20;99.90;;;;;;5026721;28;20038;-65
2023/12/21 03:48:09;;;;;;;15.48;8.38;;;9.20;99.90;;;;;;5026152;28;20416;-64
2023/12/21 03:50:35;;;;;;;13.65;7.93;;;9.20;99.90;;;;;;5028377;28;20042;-65
2023/12/21 03:53:01;;;;;;;21.10;8.52;;;9.20;99.90;;;;;;5025934;28;20575;-64
2023/12/21 03:55:26;;;;;;;15.35;7.57;;;9.20;99.90;;;;;;5027100;28;20108;-64
2023/12/21 03:57:52;;;;;;;15.95;7.65;;;9.20;99.90;;;;;;5024022;28;20414;-65
2023/12/21 04:00:18;;;;;;;17.23;7.93;;;9.20;99.90;;;;;;5017740;28;20041;-64
2023/12/21 04:02:44;;;;;;;;;;;9.30;99.90;;;;;;5025991;28;20037;-65
2023/12/21 04:05:10;;;;;;;15.30;7.80;;;9.20;99.90;;;;;;5025499;28;19922;-64
2023/12/21 04:07:35;;;;;;;15.63;7.63;;;9.20;99.90;;;;;;5026490;28;20559;-64
2023/12/21 04:10:01;;;;;;;11.90;8.10;;;9.20;99.90;;;;;;5023946;28;20042;-64
2023/12/21 04:12:27;;;;;;;13.43;7.72;;;9.20;99.90;;;;;;5023515;28;20045;-63
2023/12/21 04:14:52;;;;;;;21.43;9.47;;;9.20;99.90;;;;;;5025264;28;20037;-64
2023/12/21 04:17:18;;;;;;;14.50;7.67;;;9.20;99.90;;;;;;5021641;28;20053;-64
2023/12/21 04:19:43;;;;;;;16.60;8.07;;;9.20;99.90;;;;;;5026632;28;20809;-64
2023/12/21 04:22:09;;;;;;;13.43;6.90;;;9.20;99.90;;;;;;5024386;28;20069;-66
2023/12/21 04:24:34;;;;;;;12.27;7.70;;;9.20;99.90;;;;;;5026954;28;20415;-66
2023/12/21 04:27:00;;;;;;;21.80;7.93;;;9.20;99.90;;;;;;5024511;28;20042;-64
2023/12/21 04:29:26;;;;;;;12.10;6.53;;;9.20;99.90;;;;;;5025573;28;20280;-64
2023/12/21 04:31:51;;;;;;;14.67;6.30;;;9.20;99.90;;;;;;5024581;28;20041;-64
2023/12/21 04:34:17;;;;;;;13.50;8.03;;;9.20;99.90;;;;;;5026063;28;20037;-64
2023/12/21 04:36:42;;;;;;;16.67;7.30;;;9.20;99.90;;;;;;5024094;28;20076;-65
2023/12/21 04:39:08;;;;;;;12.43;6.93;;;9.20;99.90;;;;;;5024785;28;20037;-64
2023/12/21 04:41:33;;;;;;;15.80;7.70;;;9.20;99.90;;;;;;5026084;28;20041;-64
2023/12/21 04:44:00;;;;;;;17.23;7.83;;;9.20;99.90;;;;;;5026158;28;20041;-65
2023/12/21 04:46:25;;;;;;;;;;;9.20;99.90;;;;;;5025127;28;20652;-64
2023/12/21 04:48:51;;;;;;;13.05;7.07;;;9.20;99.90;;;;;;5024132;28;19932;-64
2023/12/21 04:51:17;;;;;;;13.38;7.22;;;9.30;99.90;;;;;;5024114;28;20049;-64
2023/12/21 04:53:43;;;;;;;11.60;6.80;;;9.20;99.90;;;;;;5025860;28;20047;-64
2023/12/21 04:56:09;;;;;;;14.88;7.00;;;9.20;99.90;;;;;;5025065;28;20041;-64
2023/12/21 04:58:35;;;;;;;15.07;6.30;;;9.20;99.90;;;;;;5025938;28;20046;-64
2023/12/21 05:01:01;;;;;;;15.05;7.40;;;9.20;99.90;;;;;;5025684;28;20044;-64
2023/12/21 05:03:26;;;;;;;13.00;6.53;;;9.20;99.90;;;;;;5026098;28;20077;-64
2023/12/21 05:05:52;;;;;;;15.83;7.40;;;9.20;99.90;;;;;;5025194;28;20628;-64
2023/12/21 05:08:18;;;;;;;19.90;7.27;;;9.20;99.90;;;;;;5025556;28;20033;-63
2023/12/21 05:10:44;;;;;;;14.15;6.57;;;9.30;99.90;;;;;;5026514;28;20091;-65
2023/12/21 05:13:09;;;;;;;12.90;5.50;;;9.30;99.90;;;;;;5025111;28;20463;-64
2023/12/21 05:15:35;;;;;;;18.70;6.20;;;9.20;99.90;;;;;;5025758;28;20104;-64
2023/12/21 05:18:01;;;;;;;12.45;5.70;;;9.30;99.90;;;;;;5024361;28;20042;-64
2023/12/21 05:20:26;;;;;;;7.55;5.35;;;9.30;99.90;;;;;;5021655;28;20041;-64
2023/12/21 05:22:52;;;;;;;11.80;5.57;;;9.20;99.90;;;;;;5021358;28;20408;-64
2023/12/21 05:25:18;;;;;;;13.77;6.20;;;9.20;99.90;;;;;;5025801;28;20557;-64
2023/12/21 05:27:43;;;;;;;18.83;6.27;;;9.30;99.90;;;;;;5023400;28;20045;-65
2023/12/21 05:30:10;;;;;;;13.88;6.25;;;9.30;99.90;;;;;;5025156;28;20277;-64
2023/12/21 05:32:35;;;;;;;16.00;6.32;;;9.20;99.90;;;;;;5025579;28;20122;-64
2023/12/21 05:35:03;;;;;;;16.15;6.43;;;9.30;99.90;;;;;;5028546;28;20117;-64
2023/12/21 05:37:28;;;;;;;12.73;5.65;;;9.30;99.90;;;;;;5025874;28;20611;-64
2023/12/21 05:39:54;;;;;;;17.05;5.55;;;9.20;99.90;;;;;;5025411;28;20133;-65
2023/12/21 05:42:20;;;;;;;14.37;4.90;;;9.30;99.90;;;;;;5026255;28;20044;-64
2023/12/21 05:44:45;;;;;;;16.63;5.70;;;9.30;99.90;;;;;;5022452;28;20299;-66
2023/12/21 05:47:11;;;;;;;18.50;5.77;;;9.30;99.90;;;;;;5025484;28;20409;-65
2023/12/21 05:49:36;;;;;;;9.67;4.50;;;9.30;99.90;;;;;;5026548;28;20052;-63
2023/12/21 05:52:02;;;;;;;11.70;5.57;;;9.30;99.90;;;;;;5022569;28;20806;-64
2023/12/21 05:54:30;;;;;;;13.43;4.38;;;9.30;99.90;;;;;;5024766;28;20060;-64
2023/12/21 05:56:55;;;;;;;17.70;5.07;;;9.30;99.90;;;;;;5023825;28;20294;-65
2023/12/21 05:59:21;;;;;;;13.03;5.03;;;9.30;99.90;;;;;;5025227;28;20168;-64
2023/12/21 06:01:46;;;;;;;16.30;4.93;;;9.20;99.90;;;;;;5025159;28;20771;-64
2023/12/21 06:04:12;;;;;;;18.20;3.90;;;9.30;99.90;;;;;;5024528;28;20088;-64
2023/12/21 06:06:38;;;;;;;19.38;4.90;;;9.30;99.90;;;;;;5024153;28;20522;-64
2023/12/21 06:09:07;;;;;;;13.85;3.08;;;9.30;99.90;;;;;;5024853;28;20563;-64
2023/12/21 06:11:33;;;;;;;19.17;5.22;;;9.30;99.90;;;;;;5025616;28;20038;-64
2023/12/21 06:13:59;;;;;;;8.48;2.70;;;9.30;99.90;;;;;;5023439;28;20044;-64
2023/12/21 06:16:24;;;;;;;10.90;3.93;;;9.30;99.90;;;;;;5025392;28;20124;-64
2023/12/21 06:18:50;;;;;;;13.05;4.40;;;9.30;99.90;;;;;;5027386;28;20520;-65
2023/12/21 06:21:16;;;;;;;9.50;2.85;;;9.40;99.90;;;;;;5031476;28;20040;-64
2023/12/21 06:23:42;;;;;;;11.10;2.83;;;9.40;99.90;;;;;;5025252;28;20462;-64
2023/12/21 06:26:07;;;;;;;15.90;3.70;;;9.30;99.90;;;;;;5025381;28;20034;-64
2023/12/21 06:28:33;;;;;;;9.23;2.87;;;9.40;99.90;;;;;;5026029;28;20037;-64
2023/12/21 06:30:58;;;;;;;11.03;3.10;;;9.40;99.90;;;;;;5024225;28;20034;-64
2023/12/21 06:33:24;;;;;;;9.70;2.70;;;9.40;99.90;;;;;;5024901;28;20038;-63
2023/12/21 06:35:49;;;;;;;10.47;2.33;;;9.40;99.90;;;;;;5026310;28;20112;-64
2023/12/21 06:38:15;;;;;;;10.57;3.30;;;9.40;99.90;;;;;;5028471;28;20041;-64
2023/12/21 06:40:41;;;;;;;13.98;2.13;;;9.40;99.90;;;;;;5029143;28;20048;-64
2023/12/21 06:43:06;;;;;;;9.52;2.22;;;9.50;99.90;;;;;;5030790;28;20069;-64
2023/12/21 06:45:32;;;;;;;11.77;2.50;;;9.50;99.90;;;;;;5032514;28;20519;-65
2023/12/21 06:48:00;;;;;;;11.90;3.27;;;9.50;99.90;;;;;;5031726;28;20041;-63
2023/12/21 06:50:25;;;;;;;13.25;2.58;;;9.50;99.90;;;;;;5011983;28;20474;-64
2023/12/21 06:52:51;;;;;;;9.40;2.15;;;9.50;99.90;;;;;;5031915;28;20448;-64
2023/12/21 06:55:17;;;;;;;9.02;2.47;;;9.60;99.90;;;;;;5033674;28;20073;-64
2023/12/21 06:57:43;;;;;;;15.90;3.20;;;9.60;99.90;;;;;;5028587;28;20072;-64
2023/12/21 07:00:09;;;;;;;7.28;2.88;;;9.60;99.90;;;;;;5046811;28;20367;-64
2023/12/21 07:02:35;;;;;;;11.73;2.45;;;9.60;99.90;;;;;;5031627;28;20087;-64
2023/12/21 07:05:01;;;;;;;8.50;2.65;;;9.60;99.90;;;;;;5029510;28;20133;-63
2023/12/21 07:07:27;;;;;;;13.45;3.50;;;9.60;99.90;;;;;;5031752;28;20132;-64
2023/12/21 07:09:52;;;;;;;14.73;2.73;;;9.60;99.90;;;;;;5032220;28;20366;-64
2023/12/21 07:12:20;;;;;;;9.03;2.70;;;9.50;99.90;;;;;;5030214;28;20379;-64
2023/12/21 07:14:46;;;;;;;5.85;2.45;;;9.50;99.90;;;;;;5029211;28;20492;-64
2023/12/21 07:17:12;;;;;;;11.73;3.90;;;9.50;99.90;;;;;;5032306;28;20053;-63
2023/12/21 07:19:38;;;;;;;7.22;2.85;;;9.50;99.90;;;;;;5030569;28;20095;-64
2023/12/21 07:22:06;;;;;;;10.80;2.85;;;9.50;99.90;;;;;;5031528;28;20535;-64
2023/12/21 07:24:32;;;;;;;10.68;2.78;;;9.50;99.90;;;;;;5031530;28;20037;-62
2023/12/21 07:26:58;;;;;;;11.55;2.88;;;9.40;99.90;;;;;;5026075;28;20092;-64
2023/12/21 07:29:23;;;;;;;10.25;2.40;;;9.40;99.90;;;;;;5024969;28;20428;-64
2023/12/21 07:31:49;;;;;;;5.67;2.13;;;9.40;99.90;;;;;;5031183;28;20034;-64
2023/12/21 07:34:15;;;;;;;9.88;2.55;;;9.40;99.90;;;;;;5025823;28;20038;-64
2023/12/21 07:36:40;;;;;;;11.37;2.47;;;9.40;99.90;;;;;;5026429;28;20033;-65
2023/12/21 07:39:06;;;;;;;10.60;2.23;;;9.40;99.90;;;;;;5031546;28;20608;-63
2023/12/21 07:41:31;;;;;;;5.47;1.37;;;9.50;99.90;;;;;;5031829;28;20180;-65
2023/12/21 07:44:00;;;;;;;7.60;1.80;;;9.50;99.90;;;;;;5017759;28;20041;-65
2023/12/21 07:46:25;;;;;;;6.53;1.70;;;9.50;99.90;;;;;;5027246;28;20788;-66
2023/12/21 07:48:51;;;;;;;11.33;2.03;;;9.50;99.90;;;;;;5025381;28;20045;-65
2023/12/21 07:51:16;;;;;;;7.10;1.60;;;9.50;99.90;;;;;;5034758;28;20853;-65
2023/12/21 07:53:43;;;;;;;5.27;1.20;;;9.50;99.90;;;;;;5035764;28;20056;-66
2023/12/21 07:56:09;;;;;;;4.07;1.52;;;9.40;99.90;;;;;;5030270;28;20037;-66
2023/12/21 07:58:35;;;;;;;5.68;1.52;;;9.40;99.90;;;;;;5030837;28;20069;-65
2023/12/21 08:01:00;;;;;;;5.45;1.35;;;9.50;99.90;;;;;;5024942;28;20441;-67
2023/12/21 08:03:26;;;;;;;5.65;1.35;;;9.50;99.90;;;;;;5027291;28;20125;-67
2023/12/21 08:05:52;;;;;;;6.00;2.03;;;9.50;99.90;;;;;;5024124;28;20041;-67
2023/12/21 08:08:19;;;;;;;4.53;0.90;;;9.50;99.90;;;;;;5021063;28;20151;-67
2023/12/21 08:10:44;;;;;;;4.18;1.20;;;9.50;99.90;;;;;;5025713;28;20276;-67
2023/12/21 08:13:11;;;;;;;5.57;1.33;;;9.50;99.90;;;;;;5030964;28;20550;-67
2023/12/21 08:15:36;;;;;;;1.50;0.60;;;9.60;99.90;;;;;;5029440;28;20400;-67
2023/12/21 08:18:02;;;;;;;6.13;1.43;;;9.60;99.90;;;;;;5011066;28;20034;-67
2023/12/21 08:20:29;;;;;;;5.03;1.67;;;9.60;99.90;;;;;;5026608;28;20116;-66
2023/12/21 08:22:55;;;;;;;1.92;0.73;;;9.50;99.90;;;;;;5029839;28;20055;-66
2023/12/21 08:25:23;;;;;;;2.33;0.63;;;9.60;99.90;;;;;;5028764;28;20163;-67
2023/12/21 08:27:48;;;;;;;4.00;1.17;;;9.60;99.90;;;;;;5029723;28;20135;-67
2023/12/21 08:30:14;;;;;;;1.63;0.70;;;9.60;99.90;;;;;;5031037;28;20037;-67
2023/12/21 08:32:40;;;;;;;4.80;1.35;;;9.60;99.90;;;;;;5030799;28;20052;-67
2023/12/21 08:35:06;;;;;;;2.83;0.65;;;9.60;99.90;;;;;;5030770;28;20149;-66
2023/12/21 08:37:32;;;;;;;4.60;1.25;;;9.60;99.90;;;;;;5031105;28;20079;-66
2023/12/21 08:39:58;;;;;;;2.33;1.00;;;9.60;99.90;;;;;;5026496;28;20065;-67
2023/12/21 08:42:26;;;;;;;2.90;0.82;;;9.60;99.90;;;;;;5028747;28;20276;-66
2023/12/21 08:44:52;;;;;;;3.33;0.73;;;9.60;99.90;;;;;;5027366;28;20619;-67
2023/12/21 08:47:18;;;;;;;2.53;0.73;;;9.60;99.90;;;;;;5022508;28;20583;-67
2023/12/21 08:49:44;;;;;;;1.75;0.57;;;9.60;99.90;;;;;;5029695;28;20108;-66
2023/12/21 08:52:12;;;;;;;2.65;0.85;;;9.60;99.90;;;;;;5025085;28;20060;-67
2023/12/21 08:54:38;;;;;;;2.97;0.70;;;9.60;99.90;;;;;;5030069;28;20041;-66
2023/12/21 08:57:03;;;;;;;4.27;1.00;;;9.60;99.90;;;;;;5028861;28;20037;-66
2023/12/21 08:59:29;;;;;;;3.85;1.00;;;9.70;99.90;;;;;;5030911;28;20216;-66
2023/12/21 09:01:55;;;;;;;4.53;1.10;;;9.70;99.90;;;;;;5030332;28;20411;-66
2023/12/21 09:04:21;;;;;;;2.40;0.93;;;9.60;99.90;;;;;;5030323;28;20041;-66
2023/12/21 09:06:46;;;;;;;3.85;1.30;;;9.70;99.90;;;;;;5030747;28;20037;-66
2023/12/21 09:09:13;;;;;;;4.82;1.00;;;9.70;99.90;;;;;;5030632;28;20044;-66
2023/12/21 09:11:39;;;;;;;;;;;9.70;99.90;;;;;;5030760;28;20087;-67
2023/12/21 09:14:04;;;;;;;4.57;1.30;;;9.70;99.90;;;;;;5029858;28;19971;-66
2023/12/21 09:16:30;;;;;;;5.40;1.60;;;9.80;99.90;;;;;;5029840;28;20033;-66
2023/12/21 09:18:57;;;;;;;4.00;1.65;;;9.80;99.90;;;;;;5030243;28;20116;-66
2023/12/21 09:21:22;;;;;;;9.20;1.75;;;9.80;99.90;;;;;;5030580;28;20472;-66
2023/12/21 09:23:48;;;;;;;4.67;1.00;;;9.80;99.90;;;;;;5029992;28;20080;-66
2023/12/21 09:26:14;;;;;;;11.10;2.10;;;9.90;99.90;;;;;;5028771;28;20091;-66
2023/12/21 09:28:39;;;;;;;11.20;1.70;;;9.90;99.90;;;;;;5029922;28;20487;-66
2023/12/21 09:31:05;;;;;;;11.93;1.77;;;9.90;99.90;;;;;;5029886;28;20037;-65
2023/12/21 09:33:33;;;;;;;5.65;1.40;;;9.90;99.90;;;;;;5030045;28;20033;-66
2023/12/21 09:36:02;;;;;;;5.88;0.82;;;9.90;99.90;;;;;;5029890;28;20064;-66
2023/12/21 09:38:28;;;;;;;6.95;1.23;;;9.90;99.90;;;;;;5030441;28;20116;-66
2023/12/21 09:40:56;;;;;;;6.70;1.00;;;9.90;99.90;;;;;;5029846;28;20496;-66
2023/12/21 09:43:22;;;;;;;7.20;0.90;;;9.90;99.90;;;;;;5029540;28;20049;-66
2023/12/21 09:45:51;;;;;;;;;;;9.90;99.90;;;;;;5029579;28;20045;-66
2023/12/21 09:48:18;;;;;;;6.28;0.70;;;9.90;99.90;;;;;;5029696;28;19929;-66
2023/12/21 09:50:45;;;;;;;4.30;0.57;;;9.90;99.90;;;;;;5029785;28;20033;-66
2023/12/21 09:53:15;;;;;;;5.93;1.08;;;9.90;99.90;;;;;;5029607;28;20071;-66
2023/12/21 09:55:42;;;;;;;7.28;1.00;;;9.90;99.90;;;;;;5029340;28;20095;-66
2023/12/21 09:58:11;;;;;;;4.07;0.80;;;9.90;99.90;;;;;;5029262;28;20037;-66
2023/12/21 10:00:37;;;;;;;2.97;0.80;;;9.90;99.90;;;;;;5030299;28;20037;-67
2023/12/21 10:03:04;;;;;;;6.82;1.10;;;9.90;99.90;;;;;;5028471;28;20094;-66
2023/12/21 10:05:30;;;;;;;8.18;1.17;;;9.90;99.90;;;;;;5030381;28;20091;-66
2023/12/21 10:07:57;;;;;;;4.82;0.70;;;9.90;99.90;;;;;;5029655;28;20042;-66
2023/12/21 10:10:22;;;;;;;7.70;1.13;;;9.90;99.90;;;;;;5029237;28;20069;-67
2023/12/21 10:12:48;;;;;;;11.30;1.52;;;10.00;99.90;;;;;;5029707;28;20069;-66
2023/12/21 10:15:14;;;;;;;9.40;0.87;;;10.00;99.90;;;;;;5029233;28;20116;-66
2023/12/21 10:17:39;;;;;;;7.43;1.23;;;10.00;99.90;;;;;;5029470;28;20037;-68
2023/12/21 10:20:11;;;;;;;7.38;0.93;;;10.00;99.90;;;;;;5029348;28;20458;-66
2023/12/21 10:22:42;;;;;;;9.25;1.08;;;10.10;99.90;;;;;;5029401;28;20420;-66
2023/12/21 10:25:09;;;;;;;9.52;1.63;;;10.10;99.90;;;;;;5026218;28;20084;-66
2023/12/21 10:27:36;;;;;;;12.75;2.00;;;10.20;99.90;;;;;;5029370;28;20055;-66
2023/12/21 10:30:03;;;;;;;;;;;10.20;99.90;;;;;;5029588;28;20033;-67
2023/12/21 10:32:29;;;;;;;8.68;1.10;;;10.20;99.90;;;;;;5029298;28;20007;-66
2023/12/21 10:34:55;;;;;;;10.75;1.58;;;10.30;99.90;;;;;;5028831;28;20076;-66
2023/12/21 10:37:22;;;;;;;12.85;1.38;;;10.30;99.90;;;;;;5027978;28;20046;-66
2023/12/21 10:39:47;;;;;;;8.98;1.80;;;10.30;99.90;;;;;;5027555;28;20496;-66
2023/12/21 10:42:16;;;;;;;8.90;1.50;;;10.40;99.90;;;;;;5027717;28;20048;-66
2023/12/21 10:44:47;;;;;;;13.13;1.73;;;10.40;99.90;;;;;;5027682;28;20284;-66
2023/12/21 10:47:15;;;;;;;5.20;0.70;;;10.40;99.90;;;;;;5028658;28;20077;-66
2023/12/21 10:49:43;;;;;;;11.93;1.33;;;10.50;99.90;;;;;;5029006;28;20088;-66
2023/12/21 10:52:11;;;;;;;9.80;1.42;;;10.60;99.90;;;;;;5027490;28;20038;-67
2023/12/21 10:54:40;;;;;;;13.10;2.05;;;10.60;99.90;;;;;;5028798;28;20044;-67
2023/12/21 10:57:07;;;;;;;9.57;1.02;;;10.60;99.90;;;;;;5028883;28;20049;-66
2023/12/21 10:59:33;;;;;;;11.77;1.20;;;10.60;99.90;;;;;;5027648;28;20037;-66
2023/12/21 11:01:59;;;;;;;11.80;1.05;;;10.70;99.90;;;;;;5031458;28;20049;-67
2023/12/21 11:04:27;;;;;;;17.00;1.30;;;10.60;99.90;;;;;;5027890;28;20049;-67
2023/12/21 11:06:54;;;;;;;9.63;2.00;;;10.70;99.90;;;;;;5028285;28;20500;-66
2023/12/21 11:09:25;;;;;;;11.18;1.52;;;10.70;99.90;;;;;;5028048;28;20064;-66
2023/12/21 11:11:57;;;;;;;6.28;0.80;;;10.70;99.90;;;;;;5043731;28;20053;-67
2023/12/21 11:14:23;;;;;;;9.30;0.80;;;10.70;99.90;;;;;;5027485;28;20385;-67
2023/12/21 11:16:55;;;;;;;7.10;0.82;;;10.70;99.90;;;;;;5028550;28;20052;-67
2023/12/21 11:19:35;;;;;;;11.77;1.73;;;10.80;99.90;;;;;;5029037;28;20037;-67
2023/12/21 11:22:03;;;;;;;5.07;0.60;;;10.90;99.90;;;;;;5032019;28;20531;-67
2023/12/21 11:24:29;;;;;;;9.18;1.20;;;10.90;99.90;;;;;;5030882;28;20045;-67
2023/12/21 11:26:56;;;;;;;8.95;0.95;;;11.00;99.90;;;;;;5030556;28;20064;-67
2023/12/21 11:29:24;;;;;;;6.10;0.80;;;11.00;99.90;;;;;;5030774;28;20496;-66
2023/12/21 11:31:49;;;;;;;6.63;0.80;;;11.00;99.90;;;;;;5031199;28;20382;-67
2023/12/21 11:34:19;;;;;;;7.97;0.98;;;11.00;99.90;;;;;;5030664;28;20037;-66
2023/12/21 11:36:45;;;;;;;4.35;0.98;;;11.00;99.90;;;;;;5032110;28;20558;-67
2023/12/21 11:39:18;;;;;;;5.75;0.57;;;11.00;99.90;;;;;;5032529;28;20087;-66
2023/12/21 11:41:56;;;;;;;11.30;2.33;;;11.00;99.90;;;;;;5030608;28;20042;-67
2023/12/21 11:44:22;;;;;;;19.35;1.20;;;11.00;99.90;;;;;;5030409;28;20057;-68
2023/12/21 11:46:48;;;;;;;11.63;1.63;;;11.00;99.90;;;;;;5030665;28;20084;-68
2023/12/21 11:49:23;;;;;;;8.13;1.37;;;11.00;99.90;;;;;;5030555;28;20038;-67
2023/12/21 11:51:50;;;;;;;10.02;1.48;;;11.00;99.90;;;;;;5029721;28;20041;-67
2023/12/21 11:54:19;;;;;;;;;;;11.00;99.90;;;;;;5031751;28;20492;-67
2023/12/21 11:56:45;;;;;;;12.43;1.77;;;10.90;99.90;;;;;;5030282;28;19920;-67
2023/12/21 11:59:14;;;;;;;15.07;2.10;;;10.90;99.90;;;;;;5031616;28;20046;-67
2023/12/21 12:01:40;;;;;;;16.02;2.88;;;10.90;99.90;;;;;;5029883;28;20412;-67
2023/12/21 12:04:10;;;;;;;;;;;10.90;99.90;;;;;;5032034;28;20439;-67
2023/12/21 12:06:37;;;;;;;21.77;2.50;;;10.90;99.90;;;;;;5031806;28;19997;-67
2023/12/21 12:09:03;;;;;;;20.20;2.67;;;10.90;99.90;;;;;;5029639;28;20046;-67
2023/12/21 12:11:29;;;;;;;22.83;2.73;;;10.90;99.90;;;;;;5030657;28;20060;-66
2023/12/21 12:13:58;;;;;;;21.98;3.72;;;10.90;99.90;;;;;;5031476;28;20365;-67
2023/12/21 12:16:24;;;;;;;19.30;3.65;;;10.90;99.90;;;;;;5031446;28;20504;-67
2023/12/21 12:18:50;;;;;;;17.80;2.85;;;11.00;99.90;;;;;;5031891;28;20041;-67
2023/12/21 12:21:16;;;;;;;18.77;2.88;;;11.00;99.90;;;;;;5030043;28;20103;-67
2023/12/21 12:23:46;;;;;;;18.95;3.03;;;11.00;99.90;;;;;;5029260;28;20052;-67
2023/12/21 12:26:17;;;;;;;14.15;1.98;;;11.00;99.90;;;;;;5031193;28;20049;-67
2023/12/21 12:28:47;;;;;;;14.90;3.13;;;11.10;99.90;;;;;;5031108;28;20042;-67
2023/12/21 12:31:13;;;;;;;12.30;2.28;;;11.10;99.90;;;;;;5029917;28;20134;-67
2023/12/21 12:33:41;;;;;;;11.23;1.88;;;11.10;99.90;;;;;;5029378;28;20140;-68
2023/12/21 12:36:07;;;;;;;18.63;2.38;;;11.00;99.90;;;;;;5030460;28;20034;-67
2023/12/21 12:38:34;;;;;;;11.70;2.38;;;11.10;99.90;;;;;;5029999;28;20071;-67
2023/12/21 12:41:00;;;;;;;17.88;1.65;;;11.10;99.90;;;;;;5030981;28;20217;-67
2023/12/21 12:43:30;;;;;;;15.43;2.00;;;11.20;99.90;;;;;;5030956;28;20111;-67
2023/12/21 12:45:59;;;;;;;16.98;2.33;;;11.30;99.90;;;;;;5031154;28;20111;-67